メインページ
METAR-TAF:

METAR-TAF

空港 :

カーシャーン, イラン

緯度: 33-59N, 経度: 051-27E, 海抜: 982m

現時点の気象観測

当レポートは1時間19分前の17:00(UTC)に作成
北/北西の風 2kt
気温 5°C
湿度 93%
気圧 1027 hPa
視程: 4000m
高度3500ftの雲は散在している
高度9000ftの曇り
小雪

METAR: OIFK 171700Z 33002KT 4000 -SN SCT035 OVC090 05/04 Q1027 A3034

時間: 21:49 (18:19 UTC)


TAF: 見つかりません

4,000以上の空港の気象観測と天気予報(METAR報とTAF報)

利用可能な観測所は地図上に黄色い丸と赤い丸で示す。

丸の上にカーソルを重ねると観測所名を参照できる。

次にクリックすると気象観測と天気予報を参照できる。

マップの切り替え:黒色「×」印の緑ボタンをクリックして拡大、「-」印の緑ボタンをクリックして縮小、緑色の三角印をクリックして隣りの地図に切り替え


METAR-TAF: